Slaughter, LA (70777)

2:23 PM CST on December 08, 2016 (GMT -0600)
Richland | | Change Station

Elev 125 ft 30.68 °N, 91.18 °W | Updated 8 minutes ago

Mostly Cloudy
Mostly Cloudy
50.9 °F
Feels Like 50.9 °F
N
4.0
Wind Variable Wind from North
Gusts 13.0 mph

Today
High -- | Low -- °F
--% Chance of Precip.
Yesterday
High -- | Low -- °F
Precip. -- in
Pressure 30.33 in
Visibility 10.0 miles
Clouds Scattered Clouds 2300 ft
Overcast 8500 ft
Dew Point 43 °F
Humidity 73%
Rainfall 0.00 in
Snow Depth Not available.
6:50 AM 5:03 PM
Waxing Gibbous, 66% visible
SPECI KBTR 082003Z 35010G19KT 10SM SCT023 OVC085 11/06 A3033 RMK AO2 T01110056
Pressure 30.33 in
Visibility 10.0 miles
Clouds Scattered Clouds 2300 ft
Overcast 8500 ft
Dew Point 43 °F
Humidity 73%
Rainfall 0.00 in
Snow Depth Not available.
6:50 AM 5:03 PM
Waxing Gibbous, 66% visible
SPECI KBTR 082003Z 35010G19KT 10SM SCT023 OVC085 11/06 A3033 RMK AO2 T01110056

10-Day Weather Forecast

Almanac

Astronomy

Dec. 08, 2016 Rise Set
Actual Time
Civil Twilight
Nautical Twilight
Astronomical Twilight
Moon
Length of Visible Light
Length of Day
Tomorrow will be .
, % of the Moon is Illuminated

Today's Extremes

State Highs State Lows

Community

WunderPhotos

Upload Photos

1,956,277 photos uploaded!

WunderBlog® & News

Nearby

Air Quality

  Air Quality AQ Index Pollutant
Not available.

Snow Depth

Station Depth Elevation

Earthquake Activity

City Distance Mag. Time & Date
Minimum magnitude displayed is 2.5.

Coastal Water Temperatures

Place Temperature

Stations

Nearby Weather Stations

Station Location Temp. Windchill Dew Point Humidity Wind Precip. Elev Updated Type
                   

Watches & Warnings

There are currently no watches in effect.